Time;durP1;ratioP1;P1;durP2;ratioP2;P2;SDS_P1;SDS_P2;PMS_P1;PMS_P2;Temp;Humidity;BMP_temperature;BMP_pressure;BME280_temperature;BME280_humidity;BME280_pressure;Samples;Min_cycle;Max_cycle;Signal;HPM_P1;HPM_P2
2022/01/05 00:01:43;;;;;;;6.18;2.35;;;;;;;;;;6225577;23;20086;-85
2022/01/05 00:04:09;;;;;;;4.57;2.45;;;;;;;;;;6227095;23;20023;-84
2022/01/05 00:06:36;;;;;;;6.15;2.30;;;;;;;;;;6222861;23;20020;-82
2022/01/05 00:09:02;;;;;;;5.40;2.13;;;;;;;;;;6210662;23;20012;-82
2022/01/05 00:11:29;;;;;;;5.22;2.28;;;;;;;;;;6210544;23;20013;-86
2022/01/05 00:13:57;;;;;;;5.03;2.67;;;;;;;;;;6184696;23;20015;-83
2022/01/05 00:16:23;;;;;;;3.60;1.63;;;;;;;;;;6163383;23;20059;-83
2022/01/05 00:18:49;;;;;;;2.70;1.15;;;;;;;;;;6186335;23;20013;-84
2022/01/05 00:21:16;;;;;;;4.90;1.80;;;;;;;;;;6220484;23;20013;-83
2022/01/05 00:23:43;;;;;;;4.07;2.10;;;;;;;;;;6218237;23;20017;-84
2022/01/05 00:26:10;;;;;;;7.53;2.47;;;;;;;;;;6218428;23;20022;-85
2022/01/05 00:28:36;;;;;;;5.45;2.00;;;;;;;;;;6216273;23;20036;-84
2022/01/05 00:31:02;;;;;;;4.75;1.70;;;;;;;;;;6218403;23;20016;-84
2022/01/05 00:33:30;;;;;;;4.15;1.73;;;;;;;;;;6217568;23;20047;-84
2022/01/05 00:35:56;;;;;;;5.80;2.05;;;;;;;;;;6186145;23;20322;-84
2022/01/05 00:38:23;;;;;;;4.05;1.42;;;;;;;;;;6213319;23;20020;-85
2022/01/05 00:40:49;;;;;;;3.90;1.55;;;;;;;;;;6186432;23;20017;-84
2022/01/05 00:43:26;;;;;;;3.85;1.13;;;;;;;;;;6187191;23;20733;-87
2022/01/05 00:45:52;;;;;;;4.90;1.75;;;;;;;;;;6210582;23;20479;-83
2022/01/05 00:48:18;;;;;;;3.83;1.60;;;;;;;;;;6212419;22;20021;-84
2022/01/05 00:50:45;;;;;;;4.68;1.75;;;;;;;;;;6210473;23;20017;-84
2022/01/05 00:53:11;;;;;;;3.72;1.45;;;;;;;;;;6186064;23;20008;-86
2022/01/05 00:55:38;;;;;;;4.20;1.60;;;;;;;;;;6184775;23;20025;-86
2022/01/05 00:58:04;;;;;;;3.08;1.50;;;;;;;;;;6211990;23;20009;-83
2022/01/05 01:00:30;;;;;;;3.33;1.35;;;;;;;;;;6211849;23;20031;-85
2022/01/05 01:02:57;;;;;;;3.85;1.58;;;;;;;;;;6211472;23;20063;-83
2022/01/05 01:05:23;;;;;;;3.53;1.50;;;;;;;;;;6186651;23;20411;-83
2022/01/05 01:07:50;;;;;;;3.35;1.30;;;;;;;;;;6210149;23;20020;-84
2022/01/05 01:10:17;;;;;;;3.42;1.48;;;;;;;;;;6212826;23;20012;-85
2022/01/05 01:12:43;;;;;;;3.78;1.50;;;;;;;;;;6210822;23;20013;-81
2022/01/05 01:15:11;;;;;;;4.32;1.65;;;;;;;;;;6212878;23;20391;-83
2022/01/05 01:17:38;;;;;;;3.97;1.67;;;;;;;;;;6184847;23;20005;-84
2022/01/05 01:20:04;;;;;;;3.75;1.08;;;;;;;;;;6212251;23;20325;-84
2022/01/05 01:22:32;;;;;;;3.80;1.35;;;;;;;;;;6194273;23;20472;-83
2022/01/05 01:24:59;;;;;;;1.98;0.90;;;;;;;;;;6210258;23;20012;-83
2022/01/05 01:27:25;;;;;;;3.42;1.30;;;;;;;;;;6211000;23;20024;-83
2022/01/05 01:29:52;;;;;;;5.10;1.75;;;;;;;;;;6207888;23;20406;-84
2022/01/05 01:32:18;;;;;;;4.30;1.58;;;;;;;;;;6209161;23;20001;-84
2022/01/05 01:34:44;;;;;;;5.65;1.60;;;;;;;;;;6208450;23;20441;-84
2022/01/05 01:37:11;;;;;;;3.50;1.40;;;;;;;;;;6210785;23;20345;-84
2022/01/05 01:39:37;;;;;;;2.67;1.02;;;;;;;;;;6209646;23;20013;-85
2022/01/05 01:42:04;;;;;;;2.45;1.15;;;;;;;;;;6209802;23;20019;-84
2022/01/05 01:44:30;;;;;;;3.10;1.25;;;;;;;;;;6209555;23;20012;-83
2022/01/05 01:46:57;;;;;;;3.95;1.52;;;;;;;;;;6209594;23;20020;-85
2022/01/05 01:49:23;;;;;;;3.63;1.30;;;;;;;;;;6209848;23;20029;-85
2022/01/05 01:51:49;;;;;;;3.88;0.95;;;;;;;;;;6207665;23;20008;-84
2022/01/05 01:54:16;;;;;;;2.22;1.20;;;;;;;;;;6208243;23;20013;-84
2022/01/05 01:56:44;;;;;;;2.72;1.17;;;;;;;;;;6208698;23;20028;-84
2022/01/05 01:59:12;;;;;;;1.58;0.77;;;;;;;;;;6211205;23;20009;-84
2022/01/05 02:01:40;;;;;;;3.63;0.93;;;;;;;;;;6181826;23;20017;-85
2022/01/05 02:04:06;;;;;;;2.72;1.00;;;;;;;;;;6210448;23;20082;-84
2022/01/05 02:06:32;;;;;;;2.83;1.05;;;;;;;;;;6207998;23;20020;-84
2022/01/05 02:08:59;;;;;;;3.75;0.90;;;;;;;;;;6208548;23;20021;-84
2022/01/05 02:11:26;;;;;;;3.30;1.15;;;;;;;;;;6210329;23;20045;-86
2022/01/05 02:13:53;;;;;;;3.70;1.20;;;;;;;;;;6207069;23;21415;-87
2022/01/05 02:16:21;;;;;;;4.50;1.40;;;;;;;;;;6209169;23;20016;-86
2022/01/05 02:18:59;;;;;;;3.42;0.95;;;;;;;;;;6207858;23;20021;-87
2022/01/05 02:21:27;;;;;;;3.22;1.02;;;;;;;;;;6208560;23;20052;-87
2022/01/05 02:23:53;;;;;;;3.17;0.90;;;;;;;;;;6208037;23;20032;-87
2022/01/05 02:26:20;;;;;;;5.15;1.45;;;;;;;;;;6183070;23;20452;-86
2022/01/05 02:28:46;;;;;;;2.53;0.85;;;;;;;;;;6208148;23;20425;-87
2022/01/05 02:31:12;;;;;;;3.70;0.98;;;;;;;;;;6209332;23;20013;-87
2022/01/05 02:33:42;;;;;;;1.90;0.80;;;;;;;;;;6183559;23;20013;-85
2022/01/05 02:36:12;;;;;;;2.83;0.80;;;;;;;;;;6217295;23;20345;-85
2022/01/05 02:38:39;;;;;;;2.33;0.85;;;;;;;;;;6211767;23;20044;-86
2022/01/05 02:41:10;;;;;;;3.50;1.13;;;;;;;;;;6183196;23;20036;-85
2022/01/05 02:43:37;;;;;;;3.20;0.90;;;;;;;;;;6208278;23;20103;-88
2022/01/05 02:46:04;;;;;;;1.67;0.50;;;;;;;;;;6209027;23;20005;-87
2022/01/05 02:48:32;;;;;;;2.15;0.93;;;;;;;;;;6208688;22;20465;-85
2022/01/05 02:50:59;;;;;;;3.38;1.42;;;;;;;;;;6210393;23;20047;-86
2022/01/05 02:53:25;;;;;;;3.00;1.10;;;;;;;;;;6210035;23;20004;-87
2022/01/05 02:55:53;;;;;;;2.38;0.90;;;;;;;;;;6208127;23;20480;-83
2022/01/05 02:58:19;;;;;;;3.63;1.13;;;;;;;;;;6208731;23;20004;-83
2022/01/05 03:00:46;;;;;;;4.30;1.08;;;;;;;;;;6208343;23;20039;-84
2022/01/05 03:03:12;;;;;;;3.00;0.80;;;;;;;;;;6210442;23;20013;-83
2022/01/05 03:05:39;;;;;;;2.30;0.90;;;;;;;;;;6212012;23;20322;-82
2022/01/05 03:08:05;;;;;;;2.45;0.90;;;;;;;;;;6187063;23;20071;-83
2022/01/05 03:10:32;;;;;;;2.35;0.82;;;;;;;;;;6209529;23;20008;-83
2022/01/05 03:12:58;;;;;;;2.38;0.68;;;;;;;;;;6209965;23;20020;-83
2022/01/05 03:15:24;;;;;;;2.30;0.75;;;;;;;;;;6210706;23;20016;-83
2022/01/05 03:17:51;;;;;;;1.27;0.47;;;;;;;;;;6208379;23;20013;-83
2022/01/05 03:20:17;;;;;;;3.30;0.80;;;;;;;;;;6211077;23;20071;-84
2022/01/05 03:22:44;;;;;;;2.33;0.82;;;;;;;;;;6210861;23;20017;-87
2022/01/05 03:25:19;;;;;;;3.85;0.90;;;;;;;;;;6212351;23;20012;-87
2022/01/05 03:27:46;;;;;;;3.05;0.90;;;;;;;;;;6210872;23;20396;-87
2022/01/05 03:30:14;;;;;;;2.13;0.75;;;;;;;;;;6210943;23;20437;-87
2022/01/05 03:33:26;;;;;;;1.98;0.70;;;;;;;;;;6183542;23;20013;-86
2022/01/05 03:35:28;;;;;;;1.42;0.50;;;;;;;;;;6190782;23;20009;-85
2022/01/05 03:37:55;;;;;;;2.72;1.17;;;;;;;;;;6209362;23;20324;-86
2022/01/05 03:40:21;;;;;;;3.10;0.85;;;;;;;;;;6211411;23;20013;-86
2022/01/05 03:42:48;;;;;;;2.45;0.65;;;;;;;;;;6210361;23;20016;-85
2022/01/05 03:45:15;;;;;;;3.78;0.80;;;;;;;;;;6211225;23;20013;-87
2022/01/05 03:47:41;;;;;;;1.55;0.55;;;;;;;;;;6209422;23;20036;-87
2022/01/05 03:50:08;;;;;;;1.95;0.60;;;;;;;;;;6210814;22;20051;-87
2022/01/05 03:52:35;;;;;;;1.80;0.60;;;;;;;;;;6211860;23;20015;-85
2022/01/05 03:55:03;;;;;;;1.25;0.50;;;;;;;;;;6213906;23;20004;-86
2022/01/05 03:57:30;;;;;;;2.13;0.82;;;;;;;;;;6211862;23;20013;-86
2022/01/05 03:59:56;;;;;;;3.17;0.88;;;;;;;;;;6212995;23;20012;-86
2022/01/05 04:02:23;;;;;;;1.88;0.68;;;;;;;;;;6162294;23;20016;-85
2022/01/05 04:04:49;;;;;;;2.75;0.60;;;;;;;;;;6219915;23;20013;-85
2022/01/05 04:07:16;;;;;;;3.92;0.90;;;;;;;;;;6226496;23;20479;-86
2022/01/05 04:09:42;;;;;;;3.08;0.65;;;;;;;;;;6217767;23;20500;-86
2022/01/05 04:12:11;;;;;;;1.30;0.50;;;;;;;;;;6186077;23;20032;-85
2022/01/05 04:14:38;;;;;;;2.22;0.60;;;;;;;;;;6211501;23;20015;-85
2022/01/05 04:17:04;;;;;;;3.35;0.93;;;;;;;;;;6185834;23;20016;-85
2022/01/05 04:19:31;;;;;;;2.25;0.65;;;;;;;;;;6184557;23;20012;-85
2022/01/05 04:21:58;;;;;;;3.72;0.82;;;;;;;;;;6213211;23;20013;-86
2022/01/05 04:24:24;;;;;;;3.15;0.90;;;;;;;;;;6212989;23;20683;-87
2022/01/05 04:26:51;;;;;;;1.42;0.50;;;;;;;;;;6210437;23;20017;-86
2022/01/05 04:29:17;;;;;;;3.85;0.63;;;;;;;;;;6211071;23;20025;-85
2022/01/05 04:31:45;;;;;;;2.17;0.77;;;;;;;;;;6210571;23;20334;-87
2022/01/05 04:34:12;;;;;;;3.55;0.82;;;;;;;;;;6212727;23;20357;-87
2022/01/05 04:36:38;;;;;;;2.13;0.50;;;;;;;;;;6212990;23;20005;-87
2022/01/05 04:39:05;;;;;;;1.65;0.70;;;;;;;;;;6214570;23;20012;-86
2022/01/05 04:41:31;;;;;;;1.85;0.57;;;;;;;;;;6213271;23;20020;-88
2022/01/05 04:43:57;;;;;;;1.95;0.68;;;;;;;;;;6214730;23;20012;-87
2022/01/05 04:46:24;;;;;;;3.03;0.82;;;;;;;;;;6216942;23;20017;-86
2022/01/05 04:48:50;;;;;;;1.92;0.60;;;;;;;;;;6219218;23;20033;-86
2022/01/05 04:51:16;;;;;;;1.55;0.30;;;;;;;;;;6234744;23;20009;-87
2022/01/05 04:53:43;;;;;;;2.33;0.63;;;;;;;;;;6233900;23;20017;-87
2022/01/05 04:56:09;;;;;;;2.80;0.60;;;;;;;;;;6233412;23;20009;-86
2022/01/05 04:58:36;;;;;;;2.00;0.30;;;;;;;;;;6232214;23;20012;-86
2022/01/05 05:01:02;;;;;;;1.70;0.57;;;;;;;;;;6232267;23;20004;-86
2022/01/05 05:03:28;;;;;;;2.22;0.60;;;;;;;;;;6230991;23;20024;-86
2022/01/05 05:05:55;;;;;;;3.63;0.82;;;;;;;;;;6206153;23;20066;-85
2022/01/05 05:08:21;;;;;;;3.45;0.85;;;;;;;;;;6229838;23;20016;-85
2022/01/05 05:10:48;;;;;;;1.65;0.65;;;;;;;;;;6196531;23;20016;-86
2022/01/05 05:13:14;;;;;;;2.60;0.60;;;;;;;;;;6213518;23;20023;-85
2022/01/05 05:15:41;;;;;;;3.08;0.75;;;;;;;;;;6211382;23;20023;-87
2022/01/05 05:18:08;;;;;;;2.80;0.77;;;;;;;;;;6216113;23;20453;-86
2022/01/05 05:20:35;;;;;;;2.70;0.47;;;;;;;;;;6213846;23;20020;-85
2022/01/05 05:23:01;;;;;;;2.97;0.95;;;;;;;;;;6211659;23;20015;-85
2022/01/05 05:25:28;;;;;;;1.25;0.40;;;;;;;;;;6210038;23;20013;-81
2022/01/05 05:27:54;;;;;;;2.42;0.75;;;;;;;;;;6211734;23;20016;-85
2022/01/05 05:30:21;;;;;;;2.10;0.55;;;;;;;;;;6210590;23;20016;-85
2022/01/05 05:32:47;;;;;;;2.53;0.73;;;;;;;;;;6210332;23;20440;-85
2022/01/05 05:35:14;;;;;;;1.60;0.55;;;;;;;;;;6184177;23;20020;-85
2022/01/05 05:37:41;;;;;;;1.92;0.50;;;;;;;;;;6182793;23;20016;-84
2022/01/05 05:40:07;;;;;;;2.17;0.40;;;;;;;;;;6157817;23;20017;-84
2022/01/05 05:42:34;;;;;;;1.67;0.60;;;;;;;;;;6207853;23;20044;-84
2022/01/05 05:45:00;;;;;;;1.67;0.55;;;;;;;;;;6183815;23;20020;-85
2022/01/05 05:47:27;;;;;;;1.35;0.52;;;;;;;;;;6210394;23;20276;-84
2022/01/05 05:49:53;;;;;;;2.40;0.68;;;;;;;;;;6212380;23;21160;-83
2022/01/05 05:52:19;;;;;;;1.23;0.57;;;;;;;;;;6213585;23;20038;-84
2022/01/05 05:54:46;;;;;;;1.98;0.70;;;;;;;;;;6212659;23;20017;-87
2022/01/05 05:57:12;;;;;;;4.05;0.70;;;;;;;;;;6211608;23;20013;-88
2022/01/05 05:59:38;;;;;;;1.90;0.60;;;;;;;;;;6210538;23;20008;-88
2022/01/05 06:02:05;;;;;;;3.00;0.60;;;;;;;;;;6211624;23;20015;-87
2022/01/05 06:04:31;;;;;;;1.50;0.57;;;;;;;;;;6210450;23;20024;-87
2022/01/05 06:06:58;;;;;;;1.77;0.45;;;;;;;;;;6212733;23;20013;-88
2022/01/05 06:09:24;;;;;;;3.80;0.90;;;;;;;;;;6211943;23;20013;-87
2022/01/05 06:11:51;;;;;;;1.02;0.30;;;;;;;;;;6211957;23;20023;-87
2022/01/05 06:14:17;;;;;;;3.97;0.73;;;;;;;;;;6184441;23;20019;-87
2022/01/05 06:16:43;;;;;;;1.27;0.55;;;;;;;;;;6209470;23;20457;-85
2022/01/05 06:19:10;;;;;;;3.22;0.70;;;;;;;;;;6186591;23;20012;-86
2022/01/05 06:21:36;;;;;;;3.55;0.80;;;;;;;;;;6184797;23;20032;-88
2022/01/05 06:24:03;;;;;;;2.45;0.73;;;;;;;;;;6212641;23;20090;-84
2022/01/05 06:26:30;;;;;;;2.20;0.43;;;;;;;;;;6210235;23;20322;-89
2022/01/05 06:28:56;;;;;;;2.47;0.65;;;;;;;;;;6211650;23;20360;-89
2022/01/05 06:31:23;;;;;;;2.72;0.60;;;;;;;;;;6212854;23;20016;-89
2022/01/05 06:33:50;;;;;;;2.03;0.52;;;;;;;;;;6210254;23;20017;-86
2022/01/05 06:36:17;;;;;;;2.55;0.68;;;;;;;;;;6211875;23;20013;-87
2022/01/05 06:38:43;;;;;;;3.97;0.80;;;;;;;;;;6208494;23;20020;-86
2022/01/05 06:41:09;;;;;;;2.60;0.60;;;;;;;;;;6184801;23;20028;-86
2022/01/05 06:43:36;;;;;;;1.33;0.52;;;;;;;;;;6211110;23;20458;-86
2022/01/05 06:46:04;;;;;;;1.70;0.50;;;;;;;;;;6213960;23;20017;-87
2022/01/05 06:48:30;;;;;;;1.10;0.47;;;;;;;;;;6210485;22;20437;-88
2022/01/05 06:50:56;;;;;;;2.03;0.60;;;;;;;;;;6214299;23;20000;-88
2022/01/05 06:53:23;;;;;;;3.28;0.70;;;;;;;;;;6211360;23;20028;-87
2022/01/05 06:55:50;;;;;;;1.13;0.50;;;;;;;;;;6213901;23;20013;-89
2022/01/05 06:58:17;;;;;;;1.42;0.50;;;;;;;;;;6215447;23;20019;-88
2022/01/05 07:00:43;;;;;;;2.10;0.70;;;;;;;;;;6212646;23;20350;-86
2022/01/05 07:03:10;;;;;;;1.77;0.40;;;;;;;;;;6185031;23;20016;-88
2022/01/05 07:05:38;;;;;;;1.80;0.50;;;;;;;;;;6196390;23;20016;-88
2022/01/05 07:08:05;;;;;;;1.23;0.40;;;;;;;;;;6211306;23;20020;-89
2022/01/05 07:10:31;;;;;;;1.88;0.80;;;;;;;;;;6210746;23;20023;-88
2022/01/05 07:13:00;;;;;;;3.58;0.68;;;;;;;;;;6212170;23;20063;-87
2022/01/05 07:15:28;;;;;;;1.38;0.85;;;;;;;;;;6212930;23;20039;-88
2022/01/05 07:17:57;;;;;;;2.65;0.40;;;;;;;;;;6211256;23;21200;-86
2022/01/05 07:20:24;;;;;;;2.42;0.88;;;;;;;;;;6211347;23;20020;-85
2022/01/05 07:22:50;;;;;;;2.40;0.70;;;;;;;;;;6210606;23;20070;-87
2022/01/05 07:25:17;;;;;;;1.60;0.55;;;;;;;;;;6211754;23;20009;-87
2022/01/05 07:27:43;;;;;;;1.95;0.50;;;;;;;;;;6209143;23;20464;-87
2022/01/05 07:30:10;;;;;;;3.63;0.38;;;;;;;;;;6213002;23;20384;-86
2022/01/05 07:32:37;;;;;;;0.88;0.40;;;;;;;;;;6212519;23;20021;-86
2022/01/05 07:35:04;;;;;;;2.17;0.50;;;;;;;;;;6213261;23;20013;-86
2022/01/05 07:37:30;;;;;;;2.60;0.57;;;;;;;;;;6213378;23;20043;-87
2022/01/05 07:39:56;;;;;;;1.25;0.50;;;;;;;;;;6216711;23;20024;-86
2022/01/05 07:42:23;;;;;;;1.95;0.60;;;;;;;;;;6223877;23;20016;-88
2022/01/05 07:44:51;;;;;;;1.63;0.25;;;;;;;;;;6193397;23;20074;-88
2022/01/05 07:47:17;;;;;;;1.27;0.50;;;;;;;;;;6212094;23;20385;-87
2022/01/05 07:49:43;;;;;;;2.20;0.60;;;;;;;;;;6210177;23;20028;-87
2022/01/05 07:52:10;;;;;;;1.23;0.45;;;;;;;;;;6211995;23;20015;-89
2022/01/05 07:54:36;;;;;;;2.03;0.50;;;;;;;;;;6210426;23;20013;-89
2022/01/05 07:57:03;;;;;;;1.95;0.50;;;;;;;;;;6210954;23;20334;-87
2022/01/05 07:59:29;;;;;;;2.47;0.60;;;;;;;;;;6212350;23;20016;-85
2022/01/05 08:01:56;;;;;;;1.60;0.40;;;;;;;;;;6189057;23;20008;-89
2022/01/05 08:04:22;;;;;;;2.63;0.55;;;;;;;;;;6214841;23;20009;-85
2022/01/05 08:06:48;;;;;;;1.45;0.52;;;;;;;;;;6210109;23;20009;-83
2022/01/05 08:09:15;;;;;;;2.13;0.50;;;;;;;;;;6211399;23;20477;-85
2022/01/05 08:11:41;;;;;;;1.73;0.40;;;;;;;;;;6208278;23;20013;-85
2022/01/05 08:14:08;;;;;;;2.90;0.60;;;;;;;;;;6208839;23;20028;-83
2022/01/05 08:16:34;;;;;;;1.27;0.52;;;;;;;;;;6207785;23;20016;-84
2022/01/05 08:19:00;;;;;;;2.95;0.60;;;;;;;;;;6211311;23;20020;-85
2022/01/05 08:21:27;;;;;;;1.02;0.40;;;;;;;;;;6211926;23;20013;-87
2022/01/05 08:23:53;;;;;;;1.90;0.75;;;;;;;;;;6209913;23;20020;-86
2022/01/05 08:26:20;;;;;;;1.17;0.50;;;;;;;;;;6211001;23;20085;-84
2022/01/05 08:28:46;;;;;;;1.45;0.32;;;;;;;;;;6209036;23;20025;-84
2022/01/05 08:31:13;;;;;;;1.27;0.52;;;;;;;;;;6210591;23;20017;-85
2022/01/05 08:33:39;;;;;;;1.30;0.50;;;;;;;;;;6209734;23;20008;-82
2022/01/05 08:36:06;;;;;;;2.55;0.68;;;;;;;;;;6211614;23;20695;-82
2022/01/05 08:38:33;;;;;;;0.57;0.30;;;;;;;;;;6211840;23;20027;-82
2022/01/05 08:40:59;;;;;;;1.58;0.35;;;;;;;;;;6183305;23;20006;-83
2022/01/05 08:43:26;;;;;;;1.42;0.50;;;;;;;;;;6157336;23;20008;-83
2022/01/05 08:45:52;;;;;;;1.75;0.28;;;;;;;;;;6207898;23;20019;-82
2022/01/05 08:48:19;;;;;;;2.35;0.68;;;;;;;;;;6208313;22;20449;-84
2022/01/05 08:50:45;;;;;;;1.70;0.50;;;;;;;;;;6207910;23;20024;-86
2022/01/05 08:53:12;;;;;;;1.67;0.45;;;;;;;;;;6211902;23;20020;-88
2022/01/05 08:55:42;;;;;;;3.10;0.65;;;;;;;;;;6185083;23;20017;-87
2022/01/05 08:58:10;;;;;;;1.88;0.50;;;;;;;;;;6209892;23;20021;-86
2022/01/05 09:00:36;;;;;;;0.88;0.45;;;;;;;;;;6208443;23;20012;-85
2022/01/05 09:03:04;;;;;;;1.02;0.40;;;;;;;;;;6208895;23;20017;-87
2022/01/05 09:05:30;;;;;;;1.08;0.65;;;;;;;;;;6208030;23;20390;-82
2022/01/05 09:07:57;;;;;;;1.63;0.45;;;;;;;;;;6207174;23;20515;-87
2022/01/05 09:10:23;;;;;;;2.80;0.55;;;;;;;;;;6207600;23;20095;-84
2022/01/05 09:12:50;;;;;;;2.38;0.88;;;;;;;;;;6205467;23;20028;-85
2022/01/05 09:15:16;;;;;;;3.85;0.57;;;;;;;;;;6181837;23;20079;-83
2022/01/05 09:17:43;;;;;;;2.13;0.52;;;;;;;;;;6205019;23;20028;-85
2022/01/05 09:20:10;;;;;;;1.33;0.60;;;;;;;;;;6156678;23;20016;-84
2022/01/05 09:22:38;;;;;;;3.97;0.80;;;;;;;;;;6208356;23;20017;-85
2022/01/05 09:25:09;;;;;;;2.78;0.52;;;;;;;;;;6208577;23;20004;-85
2022/01/05 09:27:36;;;;;;;1.98;0.60;;;;;;;;;;6207136;23;20399;-82
2022/01/05 09:30:06;;;;;;;1.05;0.30;;;;;;;;;;6209095;23;20023;-82
2022/01/05 09:32:33;;;;;;;1.45;0.45;;;;;;;;;;6206895;23;20020;-83
2022/01/05 09:34:59;;;;;;;1.73;0.57;;;;;;;;;;6207741;23;20020;-82
2022/01/05 09:37:31;;;;;;;1.02;0.60;;;;;;;;;;6207383;23;20019;-84
2022/01/05 09:42:42;;;;;;;2.80;0.70;;;;;;;;;;6203261;23;20066;-83
2022/01/05 09:45:22;;;;;;;1.02;0.45;;;;;;;;;;6207002;23;20012;-83
2022/01/05 09:47:58;;;;;;;0.95;0.43;;;;;;;;;;6177222;23;20134;-83
2022/01/05 09:50:26;;;;;;;1.90;0.43;;;;;;;;;;6210604;23;20051;-83
2022/01/05 09:52:52;;;;;;;1.90;0.50;;;;;;;;;;6235124;23;20079;-82
2022/01/05 09:55:19;;;;;;;1.52;0.40;;;;;;;;;;6236096;23;20019;-82
2022/01/05 09:57:46;;;;;;;0.95;0.55;;;;;;;;;;6233966;23;20214;-81
2022/01/05 10:00:19;;;;;;;1.23;0.40;;;;;;;;;;6238676;23;20020;-82
2022/01/05 10:02:49;;;;;;;1.05;0.43;;;;;;;;;;6236369;23;20039;-82
2022/01/05 10:05:16;;;;;;;1.83;0.30;;;;;;;;;;6237754;23;20015;-81
2022/01/05 10:07:42;;;;;;;2.80;0.60;;;;;;;;;;6235601;23;20016;-81
2022/01/05 10:10:10;;;;;;;1.63;0.40;;;;;;;;;;6236987;22;20028;-81
2022/01/05 10:12:36;;;;;;;1.45;0.52;;;;;;;;;;6237874;23;20066;-83
2022/01/05 10:15:03;;;;;;;3.20;0.63;;;;;;;;;;6238008;23;20015;-85
2022/01/05 10:17:31;;;;;;;2.40;0.30;;;;;;;;;;6239124;23;20023;-83
2022/01/05 10:19:58;;;;;;;1.48;0.43;;;;;;;;;;6240187;23;20594;-87
2022/01/05 10:22:33;;;;;;;1.88;0.70;;;;;;;;;;6238090;23;20529;-85
2022/01/05 10:25:07;;;;;;;2.33;0.50;;;;;;;;;;6236316;23;20008;-87
2022/01/05 10:27:33;;;;;;;1.25;0.60;;;;;;;;;;6238236;23;20023;-87
2022/01/05 10:30:00;;;;;;;;;;;;;;;;;;6238846;23;20017;-86
2022/01/05 10:32:26;;;;;;;;;;;;;;;;;;6214827;23;19904;-84
2022/01/05 10:34:52;;;;;;;;;;;;;;;;;;6239444;23;20433;-82
2022/01/05 10:37:18;;;;;;;;;;;;;;;;;;6241829;23;19907;-83
2022/01/05 10:39:45;;;;;;;;;;;;;;;;;;6214184;23;20609;-83
2022/01/05 10:42:11;;;;;;;;;;;;;;;;;;6238734;23;19915;-83
2022/01/05 10:44:37;;;;;;;;;;;;;;;;;;6244267;23;19908;-84
2022/01/05 10:47:05;;;;;;;;;;;;;;;;;;6244149;23;19914;-82
2022/01/05 10:49:32;;;;;;;;;;;;;;;;;;6239471;23;19938;-83
2022/01/05 10:51:58;;;;;;;;;;;;;;;;;;6241420;23;19907;-84
2022/01/05 10:54:24;;;;;;;;;;;;;;;;;;6241047;23;19903;-83
2022/01/05 10:56:50;;;;;;;;;;;;;;;;;;6239564;23;19908;-84
2022/01/05 10:59:16;;;;;;;;;;;;;;;;;;6242924;23;20070;-82
2022/01/05 11:01:43;;;;;;;1.42;0.50;;;;;;;;;;6240627;23;19915;-78
2022/01/05 11:04:20;;;;;;;2.30;0.35;;;;;;;;;;6238560;23;20567;-76
2022/01/05 11:07:03;;;;;;;3.78;0.60;;;;;;;;;;6235354;23;20094;-75
2022/01/05 11:09:30;;;;;;;2.85;0.60;;;;;;;;;;6237556;22;20062;-77
2022/01/05 11:11:56;;;;;;;1.55;0.40;;;;;;;;;;6237907;23;20030;-76
2022/01/05 11:14:30;;;;;;;1.30;0.60;;;;;;;;;;6211149;23;20058;-77
2022/01/05 11:16:58;;;;;;;4.32;0.60;;;;;;;;;;6237884;23;21855;-77
2022/01/05 11:19:26;;;;;;;3.10;0.68;;;;;;;;;;6239324;23;20008;-77
2022/01/05 11:22:01;;;;;;;3.60;0.50;;;;;;;;;;6237401;23;20012;-78
2022/01/05 11:24:28;;;;;;;3.53;0.40;;;;;;;;;;6236816;23;20004;-77
2022/01/05 11:26:54;;;;;;;2.50;0.65;;;;;;;;;;6237049;23;20000;-80
2022/01/05 11:29:21;;;;;;;1.10;0.50;;;;;;;;;;6174963;23;20407;-76
2022/01/05 11:31:48;;;;;;;2.33;0.50;;;;;;;;;;6234957;23;20396;-77
2022/01/05 11:34:15;;;;;;;4.65;0.95;;;;;;;;;;6237541;23;20012;-77
2022/01/05 11:36:42;;;;;;;4.30;0.60;;;;;;;;;;6236221;23;20008;-76
2022/01/05 11:39:09;;;;;;;3.70;0.80;;;;;;;;;;6238952;23;20016;-77
2022/01/05 11:41:37;;;;;;;4.95;0.40;;;;;;;;;;6237317;23;20016;-78
2022/01/05 11:44:07;;;;;;;2.47;0.63;;;;;;;;;;6237064;23;20012;-77
2022/01/05 11:46:33;;;;;;;2.92;0.90;;;;;;;;;;6236931;23;20016;-78
2022/01/05 11:49:07;;;;;;;2.42;0.55;;;;;;;;;;6238627;22;20027;-77
2022/01/05 11:51:50;;;;;;;2.65;0.50;;;;;;;;;;6197313;23;20027;-77
2022/01/05 11:54:27;;;;;;;3.65;0.68;;;;;;;;;;6239973;23;20014;-78
2022/01/05 11:56:56;;;;;;;6.22;1.58;;;;;;;;;;6239867;23;20609;-77
2022/01/05 11:59:23;;;;;;;2.00;0.50;;;;;;;;;;6239625;23;20004;-77
2022/01/05 12:01:58;;;;;;;1.33;0.60;;;;;;;;;;6237373;23;20019;-77
2022/01/05 12:04:25;;;;;;;2.45;0.65;;;;;;;;;;6241169;23;20067;-79
2022/01/05 12:06:52;;;;;;;1.83;0.70;;;;;;;;;;6237910;23;20092;-78
2022/01/05 12:09:20;;;;;;;3.38;0.85;;;;;;;;;;6239658;22;20016;-78
2022/01/05 12:11:46;;;;;;;1.10;0.47;;;;;;;;;;6238952;23;20039;-77
2022/01/05 12:14:18;;;;;;;1.70;0.30;;;;;;;;;;6240031;23;20012;-78
2022/01/05 12:17:06;;;;;;;2.22;0.57;;;;;;;;;;6238261;23;20078;-76
2022/01/05 12:19:35;;;;;;;1.33;0.43;;;;;;;;;;6238375;23;20395;-78
2022/01/05 12:22:20;;;;;;;6.38;1.45;;;;;;;;;;6238368;23;20008;-77
2022/01/05 12:25:00;;;;;;;7.05;1.98;;;;;;;;;;6237774;23;20012;-78
2022/01/05 12:27:37;;;;;;;11.50;3.40;;;;;;;;;;6239402;23;20008;-79
2022/01/05 12:30:19;;;;;;;7.03;2.80;;;;;;;;;;6237031;23;21322;-77
2022/01/05 12:32:46;;;;;;;;;;;;;;;;;;6238108;23;20016;-77
2022/01/05 12:35:13;;;;;;;5.90;2.13;;;;;;;;;;6240568;23;19965;-77
2022/01/05 12:37:47;;;;;;;4.32;1.50;;;;;;;;;;6239155;23;20012;-76
2022/01/05 12:40:22;;;;;;;6.10;1.85;;;;;;;;;;6239316;23;20092;-77
2022/01/05 12:42:49;;;;;;;4.72;1.88;;;;;;;;;;6239079;23;20012;-76
2022/01/05 12:46:35;;;;;;;6.50;1.63;;;;;;;;;;6213555;23;20054;-78
2022/01/05 12:48:43;;;;;;;5.55;1.70;;;;;;;;;;6224064;23;20016;-77
2022/01/05 12:51:12;;;;;;;5.78;1.83;;;;;;;;;;6241182;23;20070;-78
2022/01/05 12:54:01;;;;;;;6.60;1.70;;;;;;;;;;6239682;23;20042;-78
2022/01/05 12:56:29;;;;;;;16.60;2.22;;;;;;;;;;6241925;23;20054;-78
2022/01/05 12:58:56;;;;;;;4.22;1.10;;;;;;;;;;6241819;23;20012;-78
2022/01/05 13:01:26;;;;;;;3.53;1.10;;;;;;;;;;6244402;23;20004;-77
2022/01/05 13:03:54;;;;;;;3.40;0.80;;;;;;;;;;6241974;23;20341;-77
2022/01/05 13:06:23;;;;;;;1.92;0.88;;;;;;;;;;6246962;23;20016;-79
2022/01/05 13:08:51;;;;;;;1.98;0.80;;;;;;;;;;6254025;22;20016;-77
2022/01/05 13:11:43;;;;;;;3.03;1.20;;;;;;;;;;6233526;23;20381;-78
2022/01/05 13:14:31;;;;;;;3.85;1.10;;;;;;;;;;6243216;23;20100;-77
2022/01/05 13:16:59;;;;;;;2.95;0.90;;;;;;;;;;6249985;23;20810;-87
2022/01/05 13:19:25;;;;;;;2.50;1.05;;;;;;;;;;6254262;23;20009;-78
2022/01/05 13:21:55;;;;;;;3.85;0.95;;;;;;;;;;6226898;23;20093;-81
2022/01/05 13:24:25;;;;;;;1.83;0.93;;;;;;;;;;6252393;23;20004;-79
2022/01/05 13:26:51;;;;;;;;;;;;;;;;;;6217118;23;20011;-77
2022/01/05 13:29:17;;;;;;;;;;;;;;;;;;6241957;23;19911;-77
2022/01/05 13:31:43;;;;;;;;;;;;;;;;;;6240708;23;19954;-79
2022/01/05 13:34:10;;;;;;;;;;;;;;;;;;6226048;23;20272;-79
2022/01/05 13:36:36;;;;;;;;;;;;;;;;;;6238469;23;19903;-81
2022/01/05 13:39:02;;;;;;;;;;;;;;;;;;6240674;23;20292;-78
2022/01/05 13:41:28;;;;;;;;;;;;;;;;;;6240580;23;19914;-77
2022/01/05 13:43:54;;;;;;;;;;;;;;;;;;6235243;23;19911;-80
2022/01/05 13:46:21;;;;;;;;;;;;;;;;;;6237732;23;19919;-79
2022/01/05 13:48:48;;;;;;;;;;;;;;;;;;6236320;23;19920;-79
2022/01/05 13:51:14;;;;;;;;;;;;;;;;;;6235375;23;19915;-80
2022/01/05 13:53:41;;;;;;;;;;;;;;;;;;6238052;23;20394;-78
2022/01/05 13:56:08;;;;;;;;;;;;;;;;;;6235830;23;19904;-80
2022/01/05 13:58:34;;;;;;;;;;;;;;;;;;6237114;23;19907;-79
2022/01/05 14:01:01;;;;;;;;;;;;;;;;;;6239493;23;19926;-80
2022/01/05 14:03:27;;;;;;;;;;;;;;;;;;6238456;23;20327;-80
2022/01/05 14:05:53;;;;;;;;;;;;;;;;;;6210608;23;20292;-80
2022/01/05 14:08:19;;;;;;;;;;;;;;;;;;6238849;22;19962;-78
2022/01/05 14:10:45;;;;;;;;;;;;;;;;;;6236537;23;19922;-78
2022/01/05 14:13:13;;;;;;;;;;;;;;;;;;6238612;23;20347;-77
2022/01/05 14:15:39;;;;;;;;;;;;;;;;;;6237447;23;20389;-79
2022/01/05 14:18:09;;;;;;;;;;;;;;;;;;6238567;23;19919;-79
2022/01/05 14:20:35;;;;;;;;;;;;;;;;;;6238247;23;19911;-78
2022/01/05 14:23:02;;;;;;;;;;;;;;;;;;6241237;23;19914;-77
2022/01/05 14:25:28;;;;;;;;;;;;;;;;;;6212013;23;19915;-77
2022/01/05 14:27:54;;;;;;;;;;;;;;;;;;6212043;23;20350;-79
2022/01/05 14:30:20;;;;;;;;;;;;;;;;;;6241054;23;19919;-81
2022/01/05 14:32:46;;;;;;;;;;;;;;;;;;6239732;23;19910;-79
2022/01/05 14:35:13;;;;;;;;;;;;;;;;;;6240801;23;19903;-79
2022/01/05 14:37:39;;;;;;;;;;;;;;;;;;6240107;23;20402;-80
2022/01/05 14:40:05;;;;;;;;;;;;;;;;;;6214702;23;19911;-79
2022/01/05 14:42:31;;;;;;;;;;;;;;;;;;6240134;23;20598;-80
2022/01/05 14:44:58;;;;;;;;;;;;;;;;;;6214073;23;19904;-78
2022/01/05 14:47:24;;;;;;;;;;;;;;;;;;6240768;23;19904;-79
2022/01/05 14:49:51;;;;;;;;;;;;;;;;;;6239395;23;19930;-80
2022/01/05 14:52:21;;;;;;;;;;;;;;;;;;6241694;23;20426;-80
2022/01/05 14:54:48;;;;;;;;;;;;;;;;;;6239911;23;19903;-80
2022/01/05 14:57:14;;;;;;;;;;;;;;;;;;6241286;23;19907;-79
2022/01/05 14:59:40;;;;;;;;;;;;;;;;;;6239865;23;19911;-79
2022/01/05 15:02:08;;;;;;;;;;;;;;;;;;6213975;23;20315;-79
2022/01/05 15:04:34;;;;;;;;;;;;;;;;;;6240023;23;19914;-80
2022/01/05 15:07:02;;;;;;;;;;;;;;;;;;6240894;23;19973;-79